createdAt,value
2022-11-28T00:02:09.530Z,18.70
2022-11-28T00:05:13.414Z,23.40
2022-11-28T00:08:16.643Z,25.17
2022-11-28T00:11:21.606Z,20.93
2022-11-28T00:14:24.561Z,20.40
2022-11-28T00:17:27.583Z,18.50
2022-11-28T00:20:32.002Z,22.07
2022-11-28T00:23:35.626Z,22.57
2022-11-28T00:26:41.641Z,23.60
2022-11-28T00:29:44.555Z,23.03
2022-11-28T00:32:47.459Z,23.93
2022-11-28T00:35:50.450Z,23.80
2022-11-28T00:38:53.726Z,22.37
2022-11-28T00:41:57.942Z,27.40
2022-11-28T00:45:00.857Z,24.07
2022-11-28T00:48:03.772Z,23.17
2022-11-28T00:51:08.165Z,21.70
2022-11-28T00:54:11.927Z,22.13
2022-11-28T00:57:16.178Z,26.17
2022-11-28T01:00:19.793Z,27.27
2022-11-28T01:03:22.728Z,23.60
2022-11-28T01:06:27.672Z,25.03
2022-11-28T01:09:30.824Z,29.33
2022-11-28T01:12:35.071Z,26.07
2022-11-28T01:15:43.560Z,25.97
2022-11-28T01:18:46.477Z,21.53
2022-11-28T01:21:49.500Z,26.63
2022-11-28T01:24:52.497Z,21.90
2022-11-28T01:27:56.833Z,27.03
2022-11-28T01:31:04.868Z,23.80
2022-11-28T01:34:07.986Z,25.83
2022-11-28T01:37:10.964Z,24.57
2022-11-28T01:40:14.816Z,22.90
2022-11-28T01:43:19.374Z,23.97
2022-11-28T01:46:22.331Z,21.73
2022-11-28T01:49:31.255Z,24.17
2022-11-28T01:52:35.102Z,19.40
2022-11-28T01:55:43.470Z,18.73
2022-11-28T01:58:53.281Z,22.80
2022-11-28T02:01:56.340Z,21.63
2022-11-28T02:04:59.742Z,21.73
2022-11-28T02:08:03.564Z,20.63
2022-11-28T02:11:28.893Z,21.77
2022-11-28T02:15:10.949Z,20.60
2022-11-28T02:18:28.577Z,21.77
2022-11-28T02:21:45.440Z,22.50
2022-11-28T02:25:04.915Z,19.33
2022-11-28T02:28:37.790Z,19.70
2022-11-28T02:32:05.179Z,19.50
2022-11-28T02:35:13.501Z,17.83
2022-11-28T02:38:23.032Z,20.27
2022-11-28T02:41:33.057Z,18.07
2022-11-28T02:44:41.083Z,18.40
2022-11-28T02:47:49.923Z,18.83
2022-11-28T02:50:58.624Z,23.00
2022-11-28T02:54:03.143Z,19.93
2022-11-28T02:57:06.503Z,21.10
2022-11-28T03:00:25.979Z,19.87
2022-11-28T03:03:58.692Z,19.00
2022-11-28T03:07:10.076Z,20.63
2022-11-28T03:10:24.394Z,19.30
2022-11-28T03:13:38.776Z,19.53
2022-11-28T03:16:48.988Z,20.33
2022-11-28T03:19:59.423Z,19.07
2022-11-28T03:23:15.799Z,21.73
2022-11-28T03:26:25.552Z,22.43
2022-11-28T03:29:35.623Z,24.00
2022-11-28T03:32:40.303Z,23.87
2022-11-28T03:35:48.124Z,19.30
2022-11-28T03:38:55.236Z,22.20
2022-11-28T03:42:03.359Z,24.23
2022-11-28T03:45:12.564Z,24.13
2022-11-28T03:48:20.867Z,24.37
2022-11-28T03:51:30.135Z,22.37
2022-11-28T03:54:37.449Z,27.30
2022-11-28T03:57:46.051Z,25.87
2022-11-28T04:00:53.837Z,28.33
2022-11-28T04:04:06.892Z,24.93
2022-11-28T04:07:22.995Z,29.13
2022-11-28T04:10:34.326Z,26.13
2022-11-28T04:13:42.756Z,27.67
2022-11-28T04:16:54.054Z,22.50
2022-11-28T04:20:02.379Z,23.70
2022-11-28T04:23:11.460Z,26.87
2022-11-28T04:26:19.327Z,24.27
2022-11-28T04:29:24.773Z,26.40
2022-11-28T04:32:29.735Z,26.27
2022-11-28T04:35:35.106Z,28.87
2022-11-28T04:38:41.704Z,25.07
2022-11-28T04:41:49.534Z,24.23
2022-11-28T04:44:57.447Z,24.60
2022-11-28T04:48:00.759Z,27.60
2022-11-28T04:51:15.231Z,25.07
2022-11-28T04:54:23.931Z,21.73
2022-11-28T04:57:31.348Z,23.37
2022-11-28T05:00:36.434Z,26.20
2022-11-28T05:03:42.822Z,22.00
2022-11-28T05:06:46.663Z,24.73
2022-11-28T05:09:51.038Z,23.23
2022-11-28T05:12:54.147Z,27.47
2022-11-28T05:15:57.487Z,24.07
2022-11-28T05:19:00.409Z,27.63
2022-11-28T05:22:03.307Z,23.60
2022-11-28T05:25:08.679Z,27.33
2022-11-28T05:28:11.952Z,25.97
2022-11-28T05:31:15.551Z,24.47
2022-11-28T05:34:18.494Z,25.83
2022-11-28T05:37:21.437Z,28.87
2022-11-28T05:40:25.896Z,26.70
2022-11-28T05:43:29.506Z,22.93
2022-11-28T05:46:32.478Z,24.93
2022-11-28T05:49:35.451Z,24.57
2022-11-28T05:52:38.351Z,23.80
2022-11-28T05:55:42.639Z,26.17
2022-11-28T05:58:46.802Z,26.20
2022-11-28T06:01:49.795Z,25.00
2022-11-28T06:04:52.780Z,25.00
2022-11-28T06:07:55.875Z,26.33
2022-11-28T06:11:00.826Z,26.50
2022-11-28T06:14:04.419Z,23.07
2022-11-28T06:17:07.295Z,28.40
2022-11-28T06:20:10.470Z,29.70
2022-11-28T06:23:13.431Z,26.30
2022-11-28T06:26:19.514Z,27.03
2022-11-28T06:29:22.494Z,28.87
2022-11-28T06:32:25.408Z,26.60
2022-11-28T06:35:28.461Z,28.63
2022-11-28T06:38:32.878Z,27.70
2022-11-28T06:41:37.138Z,27.30
2022-11-28T06:44:40.057Z,25.27
2022-11-28T06:47:43.018Z,25.80
2022-11-28T06:50:45.993Z,28.33
2022-11-28T06:53:49.514Z,24.97
2022-11-28T06:56:53.820Z,29.40
2022-11-28T06:59:56.754Z,27.13
2022-11-28T07:02:59.859Z,29.63
2022-11-28T07:06:02.978Z,28.20
2022-11-28T07:09:05.943Z,30.37
2022-11-28T07:12:10.396Z,31.00
2022-11-28T07:15:13.615Z,28.50
2022-11-28T07:18:16.555Z,30.47
2022-11-28T07:21:20.244Z,30.10
2022-11-28T07:24:23.253Z,26.13
2022-11-28T07:27:27.496Z,29.77
2022-11-28T07:30:30.389Z,28.03
2022-11-28T07:33:33.583Z,29.50
2022-11-28T07:36:36.548Z,28.77
2022-11-28T07:39:39.583Z,29.63
2022-11-28T07:42:43.912Z,25.00
2022-11-28T07:46:00.445Z,30.67
2022-11-28T07:49:04.463Z,32.03
2022-11-28T07:52:07.417Z,28.37
2022-11-28T07:55:10.444Z,26.30
2022-11-28T07:58:14.710Z,27.80
2022-11-28T08:01:20.306Z,29.60
2022-11-28T08:04:23.949Z,28.93
2022-11-28T08:07:26.994Z,27.70
2022-11-28T08:10:29.951Z,27.47
2022-11-28T08:13:34.736Z,29.23
2022-11-28T08:16:41.151Z,27.80
2022-11-28T08:19:44.132Z,26.57
2022-11-28T08:22:47.073Z,28.50
2022-11-28T08:25:49.958Z,26.90
2022-11-28T08:28:54.592Z,29.27
2022-11-28T08:31:57.528Z,29.63
2022-11-28T08:35:00.383Z,28.17
2022-11-28T08:38:03.234Z,27.63
2022-11-28T08:41:08.019Z,28.20
2022-11-28T08:44:12.317Z,28.70
2022-11-28T08:47:15.478Z,29.23
2022-11-28T08:50:18.489Z,28.57
2022-11-28T08:53:21.427Z,32.33
2022-11-28T08:56:24.422Z,26.53
2022-11-28T08:59:28.883Z,30.23
2022-11-28T09:02:31.812Z,28.57
2022-11-28T09:05:34.924Z,31.23
2022-11-28T09:08:37.809Z,26.30
2022-11-28T09:11:40.753Z,26.00
2022-11-28T09:14:45.112Z,25.43
2022-11-28T09:17:48.246Z,27.87
2022-11-28T09:20:51.259Z,26.70
2022-11-28T09:23:56.839Z,26.73
2022-11-28T09:26:59.709Z,27.77
2022-11-28T09:30:04.824Z,30.13
2022-11-28T09:33:07.761Z,24.57
2022-11-28T09:36:13.116Z,25.77
2022-11-28T09:39:17.195Z,30.03
2022-11-28T09:42:27.590Z,26.70
2022-11-28T09:45:33.129Z,27.57
2022-11-28T09:48:39.236Z,30.63
2022-11-28T09:51:50.674Z,29.60
2022-11-28T09:55:01.231Z,28.40
2022-11-28T09:58:10.828Z,31.50
2022-11-28T10:01:19.714Z,29.97
2022-11-28T10:04:29.011Z,29.50
2022-11-28T10:07:40.448Z,27.93
2022-11-28T10:10:53.696Z,29.57
2022-11-28T10:14:08.411Z,26.80
2022-11-28T10:17:21.543Z,30.57
2022-11-28T10:20:28.169Z,27.57
2022-11-28T10:23:36.044Z,28.87
2022-11-28T10:26:42.309Z,29.10
2022-11-28T10:29:51.351Z,29.83
2022-11-28T10:33:02.543Z,29.53
2022-11-28T10:36:06.623Z,27.73
2022-11-28T10:39:14.835Z,30.83
2022-11-28T10:42:22.684Z,30.47
2022-11-28T10:45:32.427Z,37.03
2022-11-28T10:48:46.662Z,28.37
2022-11-28T10:52:00.245Z,26.87
2022-11-28T10:55:23.191Z,29.70
2022-11-28T10:58:33.262Z,33.43
2022-11-28T11:01:39.648Z,29.67
2022-11-28T11:04:44.158Z,28.80
2022-11-28T11:07:51.342Z,26.73
2022-11-28T11:11:02.709Z,29.33
2022-11-28T11:14:07.523Z,28.17
2022-11-28T11:17:36.251Z,29.73
2022-11-28T11:20:41.390Z,27.83
2022-11-28T11:23:44.950Z,28.77
2022-11-28T11:26:49.583Z,31.23
2022-11-28T11:29:53.247Z,31.33
2022-11-28T11:32:57.816Z,31.83
2022-11-28T11:36:05.262Z,27.87
2022-11-28T11:39:22.235Z,27.27
2022-11-28T11:42:27.275Z,24.83
2022-11-28T11:45:32.040Z,26.17
2022-11-28T11:48:41.122Z,30.33
2022-11-28T11:51:45.443Z,30.30
2022-11-28T11:54:58.628Z,26.50
2022-11-28T11:58:06.072Z,26.23
2022-11-28T12:01:12.540Z,23.20
2022-11-28T12:04:43.680Z,26.07
2022-11-28T12:07:54.588Z,29.97
2022-11-28T12:11:09.456Z,25.23
2022-11-28T12:14:28.431Z,26.40
2022-11-28T12:17:49.127Z,25.23
2022-11-28T12:21:13.812Z,26.10
2022-11-28T12:24:23.087Z,22.67
2022-11-28T12:27:35.896Z,22.37
2022-11-28T12:30:55.871Z,25.03
2022-11-28T12:34:10.518Z,23.37
2022-11-28T12:37:33.016Z,27.57
2022-11-28T12:40:54.436Z,24.67
2022-11-28T12:44:05.419Z,20.53
2022-11-28T12:47:16.013Z,27.90
2022-11-28T12:50:30.330Z,25.20
2022-11-28T12:53:57.469Z,27.40
2022-11-28T12:57:12.077Z,24.73
2022-11-28T13:00:18.943Z,28.20
2022-11-28T13:03:35.255Z,24.87
2022-11-28T13:06:47.558Z,28.40
2022-11-28T13:10:01.830Z,22.67
2022-11-28T13:13:11.086Z,25.17
2022-11-28T13:16:26.926Z,25.00
2022-11-28T13:19:39.218Z,27.10
2022-11-28T13:22:57.984Z,26.10
2022-11-28T13:26:10.397Z,28.70
2022-11-28T13:29:24.181Z,28.27
2022-11-28T13:32:35.280Z,25.77
2022-11-28T13:35:40.165Z,25.40
2022-11-28T13:39:11.211Z,28.20
2022-11-28T13:45:52.731Z,29.10
2022-11-28T13:49:20.398Z,30.37
2022-11-28T13:52:35.050Z,27.13
2022-11-28T13:55:40.480Z,30.73
2022-11-28T13:58:48.420Z,33.30
2022-11-28T14:01:58.803Z,26.67
2022-11-28T14:05:02.611Z,31.53
2022-11-28T14:08:07.264Z,28.03
2022-11-28T14:11:32.902Z,28.03
2022-11-28T14:15:00.269Z,36.27
2022-11-28T14:22:07.394Z,36.93
2022-11-28T14:25:17.793Z,36.83
2022-11-28T14:28:24.661Z,37.90
2022-11-28T14:31:32.941Z,43.20
2022-11-28T14:34:43.692Z,39.83
2022-11-28T14:37:52.894Z,39.10
2022-11-28T14:41:05.703Z,44.53
2022-11-28T14:44:46.235Z,41.63
2022-11-28T14:48:07.626Z,39.70
2022-11-28T14:51:11.955Z,38.67
2022-11-28T14:54:21.919Z,41.50
2022-11-28T14:57:27.347Z,43.27
2022-11-28T15:00:36.089Z,39.97
2022-11-28T15:03:47.332Z,41.20
2022-11-28T15:06:52.017Z,38.27
2022-11-28T15:10:07.520Z,41.23
2022-11-28T15:13:34.875Z,44.93
2022-11-28T15:16:48.289Z,47.40
2022-11-28T15:19:53.155Z,43.73
2022-11-28T15:22:57.464Z,41.30
2022-11-28T15:26:02.271Z,40.13
2022-11-28T15:29:17.903Z,40.53
2022-11-28T15:32:20.845Z,43.47
2022-11-28T15:35:24.008Z,40.77
2022-11-28T15:38:30.157Z,45.57
2022-11-28T15:41:33.168Z,44.43
2022-11-28T15:44:37.600Z,39.17
2022-11-28T15:47:41.110Z,40.37
2022-11-28T15:50:51.621Z,41.77
2022-11-28T15:53:56.064Z,51.07
2022-11-28T15:56:59.349Z,43.20
2022-11-28T16:00:03.261Z,42.53
2022-11-28T16:03:06.862Z,44.33
2022-11-28T16:06:09.934Z,44.87
2022-11-28T16:09:28.088Z,43.23
2022-11-28T16:12:31.189Z,43.57
2022-11-28T16:15:34.238Z,40.67
2022-11-28T16:18:37.201Z,42.03
2022-11-28T16:21:47.499Z,44.93
2022-11-28T16:24:55.369Z,44.97
2022-11-28T16:27:58.600Z,44.03
2022-11-28T16:31:01.626Z,46.57
2022-11-28T16:34:04.542Z,46.17
2022-11-28T16:37:12.763Z,43.07
2022-11-28T16:40:23.577Z,47.97
2022-11-28T16:43:33.358Z,45.23
2022-11-28T16:46:39.255Z,48.20
2022-11-28T16:49:59.912Z,46.43
2022-11-28T16:53:03.763Z,44.80
2022-11-28T16:56:25.311Z,43.30
2022-11-28T16:59:28.190Z,46.13
2022-11-28T17:02:31.231Z,47.60
2022-11-28T17:05:34.262Z,49.90
2022-11-28T17:08:37.216Z,46.67
2022-11-28T17:11:44.999Z,49.37
2022-11-28T17:14:48.011Z,49.80
2022-11-28T17:17:50.963Z,53.10
2022-11-28T17:20:53.972Z,46.60
2022-11-28T17:23:57.196Z,53.97
2022-11-28T17:27:01.643Z,54.27
2022-11-28T17:30:04.820Z,51.33
2022-11-28T17:33:07.723Z,46.20
2022-11-28T17:36:12.001Z,50.47
2022-11-28T17:39:15.410Z,53.77
2022-11-28T17:42:19.691Z,49.17
2022-11-28T17:45:23.364Z,51.63
2022-11-28T17:48:26.288Z,53.93
2022-11-28T17:51:29.300Z,52.07
2022-11-28T17:54:32.195Z,49.30
2022-11-28T17:57:37.024Z,52.40
2022-11-28T18:00:40.711Z,52.37
2022-11-28T18:03:43.650Z,53.77
2022-11-28T18:06:47.693Z,60.10
2022-11-28T18:09:51.023Z,48.73
2022-11-28T18:12:55.456Z,59.73
2022-11-28T18:15:58.466Z,62.47
2022-11-28T18:19:01.414Z,61.97
2022-11-28T18:22:04.396Z,57.50
2022-11-28T18:25:08.953Z,52.80
2022-11-28T18:28:18.829Z,54.63
2022-11-28T18:31:23.917Z,55.93
2022-11-28T18:34:26.896Z,60.57
2022-11-28T18:37:29.933Z,56.03
2022-11-28T18:40:33.762Z,54.00
2022-11-28T18:43:38.962Z,62.43
2022-11-28T18:46:42.078Z,58.77
2022-11-28T18:49:45.060Z,54.97
2022-11-28T18:52:48.164Z,61.20
2022-11-28T18:56:00.066Z,56.90
2022-11-28T18:59:04.540Z,59.27
2022-11-28T19:02:08.043Z,64.03
2022-11-28T19:05:11.122Z,58.03
2022-11-28T19:08:14.047Z,59.53
2022-11-28T19:11:18.377Z,59.10
2022-11-28T19:14:22.959Z,58.30
2022-11-28T19:17:25.867Z,53.57
2022-11-28T19:20:28.757Z,55.43
2022-11-28T19:23:31.796Z,58.27
2022-11-28T19:26:35.418Z,53.23
2022-11-28T19:29:39.702Z,53.00
2022-11-28T19:32:42.622Z,48.17
2022-11-28T19:35:45.643Z,53.77
2022-11-28T19:38:48.610Z,50.30
2022-11-28T19:41:52.751Z,51.23
2022-11-28T19:44:57.039Z,53.90
2022-11-28T19:47:59.941Z,58.67
2022-11-28T19:51:03.403Z,54.47
2022-11-28T19:54:06.419Z,54.33
2022-11-28T19:57:11.236Z,55.70
2022-11-28T20:00:17.296Z,53.10
2022-11-28T20:03:20.235Z,57.30
2022-11-28T20:06:27.012Z,54.23
2022-11-28T20:09:30.153Z,50.67
2022-11-28T20:12:33.073Z,50.00
2022-11-28T20:15:38.170Z,53.10
2022-11-28T20:18:42.843Z,52.43
2022-11-28T20:21:46.077Z,52.30
2022-11-28T20:24:49.066Z,47.60
2022-11-28T20:27:51.958Z,45.60
2022-11-28T20:30:56.209Z,50.80
2022-11-28T20:33:59.379Z,51.50
2022-11-28T20:37:02.317Z,45.97
2022-11-28T20:40:05.974Z,52.80
2022-11-28T20:43:08.830Z,52.00
2022-11-28T20:46:15.999Z,52.33
2022-11-28T20:49:19.354Z,53.00
2022-11-28T20:52:22.236Z,53.67
2022-11-28T20:55:25.123Z,51.23
2022-11-28T20:58:28.392Z,54.43
2022-11-28T21:01:35.352Z,48.23
2022-11-28T21:04:38.483Z,53.63
2022-11-28T21:07:41.444Z,49.93
2022-11-28T21:10:44.516Z,52.60
2022-11-28T21:13:48.007Z,50.83
2022-11-28T21:16:52.426Z,47.80
2022-11-28T21:19:55.398Z,54.83
2022-11-28T21:22:58.331Z,48.73
2022-11-28T21:26:06.367Z,49.83
2022-11-28T21:29:10.242Z,50.00
2022-11-28T21:32:16.095Z,49.03
2022-11-28T21:35:18.986Z,46.80
2022-11-28T21:38:21.886Z,50.93
2022-11-28T21:41:27.703Z,50.37
2022-11-28T21:44:30.619Z,53.50
2022-11-28T21:47:34.889Z,47.17
2022-11-28T21:50:37.838Z,54.90
2022-11-28T21:53:40.844Z,53.13
2022-11-28T21:56:44.534Z,48.53
2022-11-28T21:59:47.501Z,51.10
2022-11-28T22:02:51.882Z,45.87
2022-11-28T22:06:01.084Z,48.17
2022-11-28T22:09:09.406Z,49.53
2022-11-28T22:12:12.803Z,50.83
2022-11-28T22:15:15.702Z,49.40
2022-11-28T22:18:19.977Z,50.23
2022-11-28T22:21:50.583Z,54.30
2022-11-28T22:24:46.223Z,48.13
2022-11-28T22:27:49.348Z,46.23
2022-11-28T22:30:52.272Z,44.77
2022-11-28T22:33:56.688Z,48.87
2022-11-28T22:36:59.618Z,48.20
2022-11-28T22:40:02.648Z,44.70
2022-11-28T22:43:06.012Z,47.07
2022-11-28T22:46:09.690Z,46.47
2022-11-28T22:49:13.996Z,50.40
2022-11-28T22:52:16.928Z,48.50
2022-11-28T22:55:19.876Z,49.10
2022-11-28T22:58:22.810Z,52.80
2022-11-28T23:01:27.373Z,51.63
2022-11-28T23:04:32.419Z,59.07
2022-11-28T23:07:35.418Z,56.33
2022-11-28T23:10:38.767Z,51.37
2022-11-28T23:13:42.176Z,54.33
2022-11-28T23:16:45.870Z,50.00
2022-11-28T23:19:50.220Z,45.73
2022-11-28T23:22:53.552Z,45.77
2022-11-28T23:25:56.501Z,45.10
2022-11-28T23:29:00.598Z,43.97
2022-11-28T23:32:03.588Z,45.87
2022-11-28T23:35:08.503Z,47.73
2022-11-28T23:38:11.429Z,44.60
2022-11-28T23:41:14.921Z,44.50
2022-11-28T23:44:19.464Z,46.60
2022-11-28T23:47:22.384Z,50.20
2022-11-28T23:50:27.235Z,46.47
2022-11-28T23:53:30.198Z,46.60
2022-11-28T23:56:36.555Z,46.73
2022-11-28T23:59:39.406Z,46.73
